sensor_id;sensor_type;location;lat;lon;timestamp;pressure;altitude;pressure_sealevel;temperature;humidity
19259;BME280;9763;48.780;9.212;2022-12-07T00:00:03;98455.88;;;8.25;77.07
19259;BME280;9763;48.780;9.212;2022-12-07T00:03:27;98468.94;;;8.24;77.30
19259;BME280;9763;48.780;9.212;2022-12-07T00:06:52;98458.63;;;8.22;77.04
19259;BME280;9763;48.780;9.212;2022-12-07T00:10:16;98466.53;;;8.21;77.28
19259;BME280;9763;48.780;9.212;2022-12-07T00:13:40;98446.97;;;8.14;77.63
19259;BME280;9763;48.780;9.212;2022-12-07T00:17:04;98461.91;;;8.26;77.33
19259;BME280;9763;48.780;9.212;2022-12-07T00:20:27;98457.47;;;8.28;77.38
19259;BME280;9763;48.780;9.212;2022-12-07T00:23:54;98458.31;;;8.28;77.73
19259;BME280;9763;48.780;9.212;2022-12-07T00:27:18;98456.56;;;8.29;77.16
19259;BME280;9763;48.780;9.212;2022-12-07T00:30:41;98442.03;;;8.25;77.38
19259;BME280;9763;48.780;9.212;2022-12-07T00:34:06;98457.38;;;8.29;77.33
19259;BME280;9763;48.780;9.212;2022-12-07T00:37:30;98449.50;;;8.31;76.98
19259;BME280;9763;48.780;9.212;2022-12-07T00:40:56;98453.88;;;8.30;76.68
19259;BME280;9763;48.780;9.212;2022-12-07T00:44:20;98447.81;;;8.30;77.02
19259;BME280;9763;48.780;9.212;2022-12-07T00:47:43;98453.03;;;8.30;77.02
19259;BME280;9763;48.780;9.212;2022-12-07T00:51:09;98444.56;;;8.26;76.54
19259;BME280;9763;48.780;9.212;2022-12-07T00:54:32;98455.09;;;8.23;76.89
19259;BME280;9763;48.780;9.212;2022-12-07T00:57:57;98458.75;;;8.21;77.05
19259;BME280;9763;48.780;9.212;2022-12-07T01:01:22;98447.59;;;8.19;77.04
19259;BME280;9763;48.780;9.212;2022-12-07T01:04:47;98454.53;;;8.18;76.90
19259;BME280;9763;48.780;9.212;2022-12-07T01:08:11;98460.66;;;8.17;76.81
19259;BME280;9763;48.780;9.212;2022-12-07T01:11:36;98455.38;;;8.19;77.18
19259;BME280;9763;48.780;9.212;2022-12-07T01:15:01;98461.56;;;8.16;76.84
19259;BME280;9763;48.780;9.212;2022-12-07T01:18:25;98458.06;;;8.17;77.02
19259;BME280;9763;48.780;9.212;2022-12-07T01:21:49;98448.91;;;8.10;77.16
19259;BME280;9763;48.780;9.212;2022-12-07T01:25:13;98461.56;;;8.16;76.73
19259;BME280;9763;48.780;9.212;2022-12-07T01:28:37;98465.84;;;8.17;76.94
19259;BME280;9763;48.780;9.212;2022-12-07T01:32:02;98470.97;;;8.19;77.07
19259;BME280;9763;48.780;9.212;2022-12-07T01:35:25;98452.53;;;8.08;76.84
19259;BME280;9763;48.780;9.212;2022-12-07T01:38:55;98469.94;;;8.21;77.42
19259;BME280;9763;48.780;9.212;2022-12-07T01:42:19;98474.16;;;8.24;76.82
19259;BME280;9763;48.780;9.212;2022-12-07T01:45:43;98473.22;;;8.25;76.80
19259;BME280;9763;48.780;9.212;2022-12-07T01:49:16;98473.31;;;8.23;76.69
19259;BME280;9763;48.780;9.212;2022-12-07T01:52:43;98466.69;;;8.18;76.42
19259;BME280;9763;48.780;9.212;2022-12-07T01:56:11;98478.69;;;8.20;77.20
19259;BME280;9763;48.780;9.212;2022-12-07T01:59:38;98474.41;;;8.19;76.72
19259;BME280;9763;48.780;9.212;2022-12-07T02:03:08;98466.78;;;8.16;76.85
19259;BME280;9763;48.780;9.212;2022-12-07T02:06:35;98447.88;;;7.97;76.53
19259;BME280;9763;48.780;9.212;2022-12-07T02:10:13;98473.91;;;8.13;76.95
19259;BME280;9763;48.780;9.212;2022-12-07T02:13:39;98474.88;;;8.10;76.51
19259;BME280;9763;48.780;9.212;2022-12-07T02:17:14;98469.97;;;8.06;76.71
19259;BME280;9763;48.780;9.212;2022-12-07T02:20:56;98469.97;;;8.06;77.11
19259;BME280;9763;48.780;9.212;2022-12-07T02:24:51;98465.06;;;8.00;76.96
19259;BME280;9763;48.780;9.212;2022-12-07T02:28:26;98462.66;;;7.97;77.44
19259;BME280;9763;48.780;9.212;2022-12-07T02:32:03;98462.06;;;7.91;76.98
19259;BME280;9763;48.780;9.212;2022-12-07T02:35:36;98452.59;;;7.90;77.31
19259;BME280;9763;48.780;9.212;2022-12-07T02:39:08;98450.06;;;7.89;77.45
19259;BME280;9763;48.780;9.212;2022-12-07T02:42:41;98457.03;;;7.88;77.23
19259;BME280;9763;48.780;9.212;2022-12-07T02:46:10;98404.94;;;7.58;77.12
19259;BME280;9763;48.780;9.212;2022-12-07T02:49:39;98445.72;;;7.89;77.20
19259;BME280;9763;48.780;9.212;2022-12-07T02:53:03;98434.06;;;7.81;77.44
19259;BME280;9763;48.780;9.212;2022-12-07T02:56:39;98440.66;;;7.86;76.77
19259;BME280;9763;48.780;9.212;2022-12-07T03:00:09;98439.81;;;7.86;77.18
19259;BME280;9763;48.780;9.212;2022-12-07T03:03:35;98418.97;;;7.72;77.37
19259;BME280;9763;48.780;9.212;2022-12-07T03:07:11;98433.91;;;7.84;77.31
19259;BME280;9763;48.780;9.212;2022-12-07T03:10:42;98428.84;;;7.81;77.29
19259;BME280;9763;48.780;9.212;2022-12-07T03:14:13;98433.22;;;7.80;77.13
19259;BME280;9763;48.780;9.212;2022-12-07T03:17:41;98428.94;;;7.79;77.73
19259;BME280;9763;48.780;9.212;2022-12-07T03:21:13;98426.50;;;7.76;77.52
19259;BME280;9763;48.780;9.212;2022-12-07T03:24:42;98427.59;;;7.72;77.25
19259;BME280;9763;48.780;9.212;2022-12-07T03:28:08;98423.31;;;7.71;77.91
19259;BME280;9763;48.780;9.212;2022-12-07T03:31:37;98428.66;;;7.68;77.43
19259;BME280;9763;48.780;9.212;2022-12-07T03:35:09;98415.25;;;7.60;77.98
19259;BME280;9763;48.780;9.212;2022-12-07T03:38:40;98427.84;;;7.68;77.57
19259;BME280;9763;48.780;9.212;2022-12-07T03:42:08;98418.34;;;7.67;77.49
19259;BME280;9763;48.780;9.212;2022-12-07T03:45:38;98409.03;;;7.63;77.80
19259;BME280;9763;48.780;9.212;2022-12-07T03:49:08;98415.25;;;7.60;77.87
19259;BME280;9763;48.780;9.212;2022-12-07T03:52:40;98419.69;;;7.58;77.75
19259;BME280;9763;48.780;9.212;2022-12-07T03:56:06;98416.34;;;7.56;78.00
19259;BME280;9763;48.780;9.212;2022-12-07T03:59:33;98410.44;;;7.52;78.22
19259;BME280;9763;48.780;9.212;2022-12-07T04:02:57;98412.47;;;7.47;78.23
19259;BME280;9763;48.780;9.212;2022-12-07T04:06:21;98415.16;;;7.46;77.79
19259;BME280;9763;48.780;9.212;2022-12-07T04:09:45;98406.59;;;7.44;77.85
19259;BME280;9763;48.780;9.212;2022-12-07T04:13:09;98404.06;;;7.42;78.21
19259;BME280;9763;48.780;9.212;2022-12-07T04:16:34;98396.44;;;7.39;77.73
19259;BME280;9763;48.780;9.212;2022-12-07T04:20:07;98399.44;;;7.32;78.09
19259;BME280;9763;48.780;9.212;2022-12-07T04:23:31;98395.47;;;7.24;77.93
19259;BME280;9763;48.780;9.212;2022-12-07T04:26:55;98397.41;;;7.21;78.13
19259;BME280;9763;48.780;9.212;2022-12-07T04:30:19;98391.66;;;7.14;78.00
19259;BME280;9763;48.780;9.212;2022-12-07T04:33:44;98376.66;;;7.04;78.04
19259;BME280;9763;48.780;9.212;2022-12-07T04:37:08;98370.19;;;6.95;78.24
19259;BME280;9763;48.780;9.212;2022-12-07T04:40:31;98372.03;;;6.93;78.13
19259;BME280;9763;48.780;9.212;2022-12-07T04:43:56;98369.56;;;6.90;78.14
19259;BME280;9763;48.780;9.212;2022-12-07T04:47:20;98371.03;;;6.96;78.53
19259;BME280;9763;48.780;9.212;2022-12-07T04:50:48;98369.13;;;6.99;78.49
19259;BME280;9763;48.780;9.212;2022-12-07T04:54:13;98355.97;;;7.02;78.41
19259;BME280;9763;48.780;9.212;2022-12-07T04:57:37;98356.59;;;7.07;78.33
19259;BME280;9763;48.780;9.212;2022-12-07T05:01:01;98357.44;;;7.08;78.37
19259;BME280;9763;48.780;9.212;2022-12-07T05:04:25;98356.50;;;7.09;78.46
19259;BME280;9763;48.780;9.212;2022-12-07T05:07:50;98366.63;;;7.13;78.83
19259;BME280;9763;48.780;9.212;2022-12-07T05:11:14;98367.25;;;7.18;78.58
19259;BME280;9763;48.780;9.212;2022-12-07T05:15:00;98367.75;;;7.25;78.45
19259;BME280;9763;48.780;9.212;2022-12-07T05:18:24;98365.50;;;7.19;77.87
19259;BME280;9763;48.780;9.212;2022-12-07T05:21:48;98379.66;;;7.29;78.13
19259;BME280;9763;48.780;9.212;2022-12-07T05:25:13;98375.47;;;7.27;77.36
19259;BME280;9763;48.780;9.212;2022-12-07T05:28:37;98384.06;;;7.44;75.84
19259;BME280;9763;48.780;9.212;2022-12-07T05:32:01;98391.09;;;7.42;76.25
19259;BME280;9763;48.780;9.212;2022-12-07T05:35:25;98395.31;;;7.61;75.39
19259;BME280;9763;48.780;9.212;2022-12-07T05:38:48;98393.19;;;7.51;75.37
19259;BME280;9763;48.780;9.212;2022-12-07T05:42:13;98403.31;;;7.40;75.36
19259;BME280;9763;48.780;9.212;2022-12-07T05:45:37;98412.72;;;7.26;75.63
19259;BME280;9763;48.780;9.212;2022-12-07T05:49:01;98405.06;;;7.07;76.01
19259;BME280;9763;48.780;9.212;2022-12-07T05:52:25;98406.44;;;6.97;76.13
19259;BME280;9763;48.780;9.212;2022-12-07T05:55:49;98422.38;;;6.89;76.40
19259;BME280;9763;48.780;9.212;2022-12-07T05:59:14;98420.88;;;6.85;76.35
19259;BME280;9763;48.780;9.212;2022-12-07T06:02:49;98420.03;;;6.84;76.26
19259;BME280;9763;48.780;9.212;2022-12-07T06:06:13;98409.56;;;6.86;76.61
19259;BME280;9763;48.780;9.212;2022-12-07T06:09:37;98404.13;;;6.91;76.73
19259;BME280;9763;48.780;9.212;2022-12-07T06:13:01;98401.41;;;6.94;76.63
19259;BME280;9763;48.780;9.212;2022-12-07T06:16:26;98407.28;;;6.97;76.75
19259;BME280;9763;48.780;9.212;2022-12-07T06:19:50;98409.88;;;6.97;76.75
19259;BME280;9763;48.780;9.212;2022-12-07T06:23:14;98420.84;;;7.02;76.60
19259;BME280;9763;48.780;9.212;2022-12-07T06:26:38;98414.75;;;7.03;76.21
19259;BME280;9763;48.780;9.212;2022-12-07T06:30:02;98403.06;;;6.95;76.77
19259;BME280;9763;48.780;9.212;2022-12-07T06:33:30;98414.91;;;7.00;76.85
19259;BME280;9763;48.780;9.212;2022-12-07T06:36:54;98405.19;;;7.04;77.17
19259;BME280;9763;48.780;9.212;2022-12-07T06:40:18;98405.66;;;7.12;76.80
19259;BME280;9763;48.780;9.212;2022-12-07T06:43:42;98401.22;;;7.14;76.76
19259;BME280;9763;48.780;9.212;2022-12-07T06:47:05;98399.38;;;7.16;76.53
19259;BME280;9763;48.780;9.212;2022-12-07T06:50:51;98396.78;;;7.16;76.54
19259;BME280;9763;48.780;9.212;2022-12-07T06:54:17;98411.78;;;7.11;76.46
19259;BME280;9763;48.780;9.212;2022-12-07T06:57:41;98422.31;;;7.08;76.60
19259;BME280;9763;48.780;9.212;2022-12-07T07:01:09;98388.97;;;6.83;76.32
19259;BME280;9763;48.780;9.212;2022-12-07T07:04:34;98425.88;;;7.05;76.81
19259;BME280;9763;48.780;9.212;2022-12-07T07:08:02;98425.03;;;7.05;76.86
19259;BME280;9763;48.780;9.212;2022-12-07T07:11:43;98428.41;;;7.07;76.93
19259;BME280;9763;48.780;9.212;2022-12-07T07:15:08;98432.69;;;7.08;77.04
19259;BME280;9763;48.780;9.212;2022-12-07T07:18:32;98424.81;;;7.09;77.28
19259;BME280;9763;48.780;9.212;2022-12-07T07:21:55;98431.63;;;7.12;77.47
19259;BME280;9763;48.780;9.212;2022-12-07T07:25:24;98401.25;;;6.97;77.69
19259;BME280;9763;48.780;9.212;2022-12-07T07:28:48;98429.47;;;7.20;77.10
19259;BME280;9763;48.780;9.212;2022-12-07T07:32:12;98437.00;;;7.24;77.11
19259;BME280;9763;48.780;9.212;2022-12-07T07:35:36;98435.09;;;7.28;76.96
19259;BME280;9763;48.780;9.212;2022-12-07T07:39:00;98434.94;;;7.31;77.12
19259;BME280;9763;48.780;9.212;2022-12-07T07:42:25;98434.78;;;7.34;76.90
19259;BME280;9763;48.780;9.212;2022-12-07T07:45:49;98436.38;;;7.37;77.04
19259;BME280;9763;48.780;9.212;2022-12-07T07:49:13;98437.13;;;7.39;77.00
19259;BME280;9763;48.780;9.212;2022-12-07T07:52:37;98442.25;;;7.40;76.81
19259;BME280;9763;48.780;9.212;2022-12-07T07:56:01;98443.84;;;7.43;76.75
19259;BME280;9763;48.780;9.212;2022-12-07T07:59:26;98448.72;;;7.49;77.15
19259;BME280;9763;48.780;9.212;2022-12-07T08:02:50;98447.66;;;7.53;76.96
19259;BME280;9763;48.780;9.212;2022-12-07T08:06:15;98444.06;;;7.55;76.99
19259;BME280;9763;48.780;9.212;2022-12-07T08:09:39;98440.41;;;7.59;76.76
19259;BME280;9763;48.780;9.212;2022-12-07T08:13:03;98440.13;;;7.64;76.80
19259;BME280;9763;48.780;9.212;2022-12-07T08:16:38;98439.91;;;7.69;76.86
19259;BME280;9763;48.780;9.212;2022-12-07T08:20:02;98447.34;;;7.75;76.89
19259;BME280;9763;48.780;9.212;2022-12-07T08:23:27;98443.44;;;7.83;76.80
19259;BME280;9763;48.780;9.212;2022-12-07T08:27:00;98450.97;;;7.88;76.91
19259;BME280;9763;48.780;9.212;2022-12-07T08:30:25;98450.66;;;7.94;77.04
19259;BME280;9763;48.780;9.212;2022-12-07T08:33:50;98452.00;;;8.01;76.96
19259;BME280;9763;48.780;9.212;2022-12-07T08:37:14;98455.13;;;8.08;76.95
19259;BME280;9763;48.780;9.212;2022-12-07T08:40:37;98447.97;;;8.11;77.45
19259;BME280;9763;48.780;9.212;2022-12-07T08:44:01;98456.03;;;8.22;77.28
19259;BME280;9763;48.780;9.212;2022-12-07T08:47:26;98455.50;;;8.33;76.97
19259;BME280;9763;48.780;9.212;2022-12-07T08:50:51;98457.31;;;8.47;77.04
19259;BME280;9763;48.780;9.212;2022-12-07T08:54:18;98448.09;;;8.57;76.48
19259;BME280;9763;48.780;9.212;2022-12-07T08:57:42;98457.06;;;8.67;76.81
19259;BME280;9763;48.780;9.212;2022-12-07T09:01:06;98456.53;;;8.76;76.05
19259;BME280;9763;48.780;9.212;2022-12-07T09:04:30;98456.81;;;8.86;76.42
19259;BME280;9763;48.780;9.212;2022-12-07T09:08:00;98454.91;;;8.89;75.62
19259;BME280;9763;48.780;9.212;2022-12-07T09:11:24;98451.09;;;8.95;76.41
19259;BME280;9763;48.780;9.212;2022-12-07T09:14:50;98452.25;;;9.05;76.72
19259;BME280;9763;48.780;9.212;2022-12-07T09:18:14;98452.72;;;9.12;76.30
19259;BME280;9763;48.780;9.212;2022-12-07T09:21:37;98448.81;;;9.19;76.10
19259;BME280;9763;48.780;9.212;2022-12-07T09:25:04;98425.47;;;9.03;76.01
19259;BME280;9763;48.780;9.212;2022-12-07T09:28:28;98450.81;;;9.29;76.72
19259;BME280;9763;48.780;9.212;2022-12-07T09:31:52;98422.97;;;9.30;76.06
19259;BME280;9763;48.780;9.212;2022-12-07T09:35:16;98440.97;;;9.49;75.83
19259;BME280;9763;48.780;9.212;2022-12-07T09:38:39;98450.47;;;9.64;76.51
19259;BME280;9763;48.780;9.212;2022-12-07T09:42:05;98447.56;;;9.83;76.46
19259;BME280;9763;48.780;9.212;2022-12-07T09:45:35;98440.59;;;9.97;76.23
19259;BME280;9763;48.780;9.212;2022-12-07T09:48:59;98445.97;;;10.08;75.96
19259;BME280;9763;48.780;9.212;2022-12-07T09:52:27;98442.25;;;10.13;75.70
19259;BME280;9763;48.780;9.212;2022-12-07T09:56:00;98445.97;;;10.23;75.20
19259;BME280;9763;48.780;9.212;2022-12-07T09:59:26;98428.56;;;10.23;75.23
19259;BME280;9763;48.780;9.212;2022-12-07T10:02:59;98433.19;;;10.32;75.17
19259;BME280;9763;48.780;9.212;2022-12-07T10:06:23;98431.97;;;10.38;75.43
19259;BME280;9763;48.780;9.212;2022-12-07T10:09:47;98425.16;;;10.35;75.35
19259;BME280;9763;48.780;9.212;2022-12-07T10:13:14;98416.50;;;10.35;75.28
19259;BME280;9763;48.780;9.212;2022-12-07T10:16:43;98403.22;;;10.25;75.04
19259;BME280;9763;48.780;9.212;2022-12-07T10:20:21;98398.44;;;10.18;74.86
19259;BME280;9763;48.780;9.212;2022-12-07T10:24:01;98398.75;;;10.13;75.12
19259;BME280;9763;48.780;9.212;2022-12-07T10:27:30;98406.66;;;10.11;75.21
19259;BME280;9763;48.780;9.212;2022-12-07T10:30:59;98409.66;;;10.05;75.16
19259;BME280;9763;48.780;9.212;2022-12-07T10:34:28;98403.81;;;10.02;74.62
19259;BME280;9763;48.780;9.212;2022-12-07T10:37:59;98407.13;;;10.04;75.14
19259;BME280;9763;48.780;9.212;2022-12-07T10:41:23;98404.16;;;10.10;74.82
19259;BME280;9763;48.780;9.212;2022-12-07T10:44:48;98402.38;;;10.10;74.59
19259;BME280;9763;48.780;9.212;2022-12-07T10:48:24;98402.75;;;10.04;74.28
19259;BME280;9763;48.780;9.212;2022-12-07T10:52:01;98399.72;;;9.98;74.99
19259;BME280;9763;48.780;9.212;2022-12-07T10:55:40;98391.63;;;9.88;74.27
19259;BME280;9763;48.780;9.212;2022-12-07T10:59:36;98376.09;;;9.72;74.66
19259;BME280;9763;48.780;9.212;2022-12-07T11:03:38;98384.84;;;9.71;75.55
19259;BME280;9763;48.780;9.212;2022-12-07T11:07:20;98383.66;;;9.63;75.16
19259;BME280;9763;48.780;9.212;2022-12-07T11:10:54;98377.69;;;9.61;75.99
19259;BME280;9763;48.780;9.212;2022-12-07T11:14:29;98374.44;;;9.57;75.66
19259;BME280;9763;48.780;9.212;2022-12-07T11:18:06;98362.53;;;9.53;75.48
19259;BME280;9763;48.780;9.212;2022-12-07T11:21:42;98364.41;;;9.51;75.36
19259;BME280;9763;48.780;9.212;2022-12-07T11:25:23;98360.38;;;9.46;75.94
19259;BME280;9763;48.780;9.212;2022-12-07T11:29:16;98357.69;;;9.47;75.31
19259;BME280;9763;48.780;9.212;2022-12-07T11:33:09;98350.91;;;9.45;76.01
19259;BME280;9763;48.780;9.212;2022-12-07T11:36:40;98351.13;;;9.42;75.93
19259;BME280;9763;48.780;9.212;2022-12-07T11:40:17;98347.19;;;9.49;76.23
19259;BME280;9763;48.780;9.212;2022-12-07T11:43:56;98333.59;;;9.44;76.11
19259;BME280;9763;48.780;9.212;2022-12-07T11:47:30;98347.47;;;9.44;75.37
19259;BME280;9763;48.780;9.212;2022-12-07T11:51:01;98336.78;;;9.34;75.74
19259;BME280;9763;48.780;9.212;2022-12-07T11:54:30;98328.69;;;9.39;76.37
19259;BME280;9763;48.780;9.212;2022-12-07T11:58:04;98337.44;;;9.38;75.79
19259;BME280;9763;48.780;9.212;2022-12-07T12:01:52;98327.28;;;9.33;75.13
19259;BME280;9763;48.780;9.212;2022-12-07T12:05:19;98327.84;;;9.24;75.39
19259;BME280;9763;48.780;9.212;2022-12-07T12:08:50;98327.84;;;9.24;75.67
19259;BME280;9763;48.780;9.212;2022-12-07T12:12:59;98319.56;;;9.18;75.09
19259;BME280;9763;48.780;9.212;2022-12-07T12:21:08;98313.13;;;8.95;75.82
19259;BME280;9763;48.780;9.212;2022-12-07T12:24:34;98320.78;;;8.98;75.87
19259;BME280;9763;48.780;9.212;2022-12-07T12:28:00;98317.25;;;8.99;76.02
19259;BME280;9763;48.780;9.212;2022-12-07T12:31:38;98323.13;;;9.02;75.87
19259;BME280;9763;48.780;9.212;2022-12-07T12:35:28;98313.06;;;8.96;75.09
19259;BME280;9763;48.780;9.212;2022-12-07T12:39:14;98314.91;;;8.94;75.51
19259;BME280;9763;48.780;9.212;2022-12-07T12:42:46;98315.56;;;8.98;76.12
19259;BME280;9763;48.780;9.212;2022-12-07T12:46:47;98311.94;;;9.00;75.81
19259;BME280;9763;48.780;9.212;2022-12-07T12:50:21;98314.91;;;9.09;75.98
19259;BME280;9763;48.780;9.212;2022-12-07T12:53:51;98309.63;;;9.10;75.23
19259;BME280;9763;48.780;9.212;2022-12-07T12:57:24;98308.88;;;9.08;75.39
19259;BME280;9763;48.780;9.212;2022-12-07T13:05:19;98285.34;;;8.95;75.40
19259;BME280;9763;48.780;9.212;2022-12-07T13:08:44;98294.75;;;8.98;75.18
19259;BME280;9763;48.780;9.212;2022-12-07T13:12:14;98272.72;;;8.89;75.59
19259;BME280;9763;48.780;9.212;2022-12-07T13:15:41;98294.38;;;9.04;75.62
19259;BME280;9763;48.780;9.212;2022-12-07T13:23:35;98276.63;;;9.11;75.17
19259;BME280;9763;48.780;9.212;2022-12-07T13:27:00;98277.44;;;9.11;75.32
19259;BME280;9763;48.780;9.212;2022-12-07T13:30:24;98280.81;;;9.13;75.93
19259;BME280;9763;48.780;9.212;2022-12-07T13:33:49;98278.38;;;9.10;74.91
19259;BME280;9763;48.780;9.212;2022-12-07T13:37:21;98283.88;;;9.06;75.04
19259;BME280;9763;48.780;9.212;2022-12-07T13:41:11;98274.09;;;8.95;75.39
19259;BME280;9763;48.780;9.212;2022-12-07T13:44:40;98281.81;;;8.96;75.09
19259;BME280;9763;48.780;9.212;2022-12-07T13:48:05;98268.34;;;8.90;75.59
19259;BME280;9763;48.780;9.212;2022-12-07T13:51:36;98250.56;;;8.82;75.45
19259;BME280;9763;48.780;9.212;2022-12-07T13:55:13;98269.38;;;9.01;75.84
19259;BME280;9763;48.780;9.212;2022-12-07T13:58:39;98271.88;;;9.03;75.41
19259;BME280;9763;48.780;9.212;2022-12-07T14:02:16;98274.50;;;9.03;75.75
19259;BME280;9763;48.780;9.212;2022-12-07T14:05:44;98263.59;;;8.96;75.54
19259;BME280;9763;48.780;9.212;2022-12-07T14:09:17;98271.88;;;9.03;76.03
19259;BME280;9763;48.780;9.212;2022-12-07T14:12:42;98276.25;;;9.02;75.46
19259;BME280;9763;48.780;9.212;2022-12-07T14:16:24;98252.16;;;8.85;75.63
19259;BME280;9763;48.780;9.212;2022-12-07T14:19:53;98262.84;;;8.94;75.25
19259;BME280;9763;48.780;9.212;2022-12-07T14:23:25;98251.53;;;8.81;75.47
19259;BME280;9763;48.780;9.212;2022-12-07T14:26:50;98268.44;;;8.88;75.84
19259;BME280;9763;48.780;9.212;2022-12-07T14:30:17;98246.78;;;8.74;76.05
19259;BME280;9763;48.780;9.212;2022-12-07T14:33:43;98266.00;;;8.85;76.14
19259;BME280;9763;48.780;9.212;2022-12-07T14:37:09;98247.63;;;8.74;75.70
19259;BME280;9763;48.780;9.212;2022-12-07T14:40:33;98265.94;;;8.87;76.20
19259;BME280;9763;48.780;9.212;2022-12-07T14:43:57;98262.50;;;8.86;76.26
19259;BME280;9763;48.780;9.212;2022-12-07T14:47:41;98269.75;;;8.81;76.09
19259;BME280;9763;48.780;9.212;2022-12-07T14:51:25;98264.16;;;8.73;76.06
19259;BME280;9763;48.780;9.212;2022-12-07T14:55:17;98277.06;;;8.75;75.92
19259;BME280;9763;48.780;9.212;2022-12-07T14:58:43;98268.50;;;8.73;76.29
19259;BME280;9763;48.780;9.212;2022-12-07T15:02:12;98272.97;;;8.71;76.23
19259;BME280;9763;48.780;9.212;2022-12-07T15:05:37;98261.94;;;8.67;75.74
19259;BME280;9763;48.780;9.212;2022-12-07T15:09:03;98268.81;;;8.68;75.45
19259;BME280;9763;48.780;9.212;2022-12-07T15:12:27;98275.94;;;8.64;75.76
19259;BME280;9763;48.780;9.212;2022-12-07T15:15:52;98255.88;;;8.52;76.25
19259;BME280;9763;48.780;9.212;2022-12-07T15:19:18;98274.19;;;8.65;75.96
19259;BME280;9763;48.780;9.212;2022-12-07T15:22:50;98273.44;;;8.63;76.09
19259;BME280;9763;48.780;9.212;2022-12-07T15:26:15;98270.84;;;8.63;76.49
19259;BME280;9763;48.780;9.212;2022-12-07T15:29:39;98270.16;;;8.59;76.18
19259;BME280;9763;48.780;9.212;2022-12-07T15:33:02;98272.03;;;8.57;76.08
19259;BME280;9763;48.780;9.212;2022-12-07T15:36:28;98269.63;;;8.54;75.46
19259;BME280;9763;48.780;9.212;2022-12-07T15:39:52;98267.19;;;8.51;75.79
19259;BME280;9763;48.780;9.212;2022-12-07T15:43:17;98263.94;;;8.48;75.62
19259;BME280;9763;48.780;9.212;2022-12-07T15:46:59;98260.69;;;8.44;75.20
19259;BME280;9763;48.780;9.212;2022-12-07T15:50:23;98255.84;;;8.38;74.96
19259;BME280;9763;48.780;9.212;2022-12-07T15:53:46;98259.53;;;8.34;75.49
19259;BME280;9763;48.780;9.212;2022-12-07T15:57:10;98261.47;;;8.30;75.56
19259;BME280;9763;48.780;9.212;2022-12-07T16:00:35;98261.63;;;8.27;76.01
19259;BME280;9763;48.780;9.212;2022-12-07T16:03:59;98255.78;;;8.24;75.40
19259;BME280;9763;48.780;9.212;2022-12-07T16:07:23;98262.81;;;8.22;75.57
19259;BME280;9763;48.780;9.212;2022-12-07T16:10:47;98258.66;;;8.19;75.90
19259;BME280;9763;48.780;9.212;2022-12-07T16:14:11;98251.88;;;8.17;75.51
19259;BME280;9763;48.780;9.212;2022-12-07T16:17:36;98250.44;;;8.11;75.47
19259;BME280;9763;48.780;9.212;2022-12-07T16:21:00;98251.47;;;8.09;75.96
19259;BME280;9763;48.780;9.212;2022-12-07T16:24:24;98244.78;;;8.05;75.90
19259;BME280;9763;48.780;9.212;2022-12-07T16:27:48;98246.69;;;8.01;75.45
19259;BME280;9763;48.780;9.212;2022-12-07T16:31:16;98242.72;;;7.95;75.85
19259;BME280;9763;48.780;9.212;2022-12-07T16:34:41;98241.94;;;7.93;76.37
19259;BME280;9763;48.780;9.212;2022-12-07T16:38:05;98241.19;;;7.91;76.10
19259;BME280;9763;48.780;9.212;2022-12-07T16:41:29;98231.81;;;7.89;76.29
19259;BME280;9763;48.780;9.212;2022-12-07T16:44:53;98230.13;;;7.88;76.09
19259;BME280;9763;48.780;9.212;2022-12-07T16:48:17;98225.31;;;7.82;75.41
19259;BME280;9763;48.780;9.212;2022-12-07T16:51:42;98223.78;;;7.78;75.61
19259;BME280;9763;48.780;9.212;2022-12-07T16:55:07;98214.84;;;7.68;75.39
19259;BME280;9763;48.780;9.212;2022-12-07T16:58:31;98212.84;;;7.57;75.76
19259;BME280;9763;48.780;9.212;2022-12-07T17:01:55;98201.31;;;7.47;75.93
19259;BME280;9763;48.780;9.212;2022-12-07T17:05:18;98197.66;;;7.35;75.97
19259;BME280;9763;48.780;9.212;2022-12-07T17:08:44;98206.66;;;7.28;75.90
19259;BME280;9763;48.780;9.212;2022-12-07T17:12:07;98207.94;;;7.21;76.02
19259;BME280;9763;48.780;9.212;2022-12-07T17:15:31;98209.09;;;7.15;76.41
19259;BME280;9763;48.780;9.212;2022-12-07T17:18:55;98205.03;;;7.11;76.31
19259;BME280;9763;48.780;9.212;2022-12-07T17:22:19;98191.28;;;7.09;76.63
19259;BME280;9763;48.780;9.212;2022-12-07T17:25:45;98187.84;;;7.09;76.37
19259;BME280;9763;48.780;9.212;2022-12-07T17:29:11;98180.81;;;7.11;76.46
19259;BME280;9763;48.780;9.212;2022-12-07T17:32:35;98182.38;;;7.13;76.32
19259;BME280;9763;48.780;9.212;2022-12-07T17:36:00;98151.75;;;7.04;76.41
19259;BME280;9763;48.780;9.212;2022-12-07T17:39:24;98180.22;;;7.21;76.12
19259;BME280;9763;48.780;9.212;2022-12-07T17:42:48;98182.56;;;7.26;76.14
19259;BME280;9763;48.780;9.212;2022-12-07T17:46:12;98185.06;;;7.28;76.49
19259;BME280;9763;48.780;9.212;2022-12-07T17:49:36;98188.19;;;7.34;76.33
19259;BME280;9763;48.780;9.212;2022-12-07T17:53:00;98193.19;;;7.37;76.46
19259;BME280;9763;48.780;9.212;2022-12-07T17:56:33;98186.81;;;7.43;76.16
19259;BME280;9763;48.780;9.212;2022-12-07T17:59:58;98182.38;;;7.45;76.24
19259;BME280;9763;48.780;9.212;2022-12-07T18:03:21;98177.94;;;7.47;76.47
19259;BME280;9763;48.780;9.212;2022-12-07T18:06:45;98178.66;;;7.49;76.16
19259;BME280;9763;48.780;9.212;2022-12-07T18:10:13;98169.31;;;7.46;76.11
19259;BME280;9763;48.780;9.212;2022-12-07T18:13:37;98179.94;;;7.57;76.28
19259;BME280;9763;48.780;9.212;2022-12-07T18:17:02;98185.13;;;7.57;75.99
19259;BME280;9763;48.780;9.212;2022-12-07T18:20:26;98180.84;;;7.56;76.46
19259;BME280;9763;48.780;9.212;2022-12-07T18:23:52;98181.84;;;7.54;76.08
19259;BME280;9763;48.780;9.212;2022-12-07T18:27:16;98185.88;;;7.59;76.07
19259;BME280;9763;48.780;9.212;2022-12-07T18:30:40;98185.06;;;7.59;75.95
19259;BME280;9763;48.780;9.212;2022-12-07T18:34:25;98184.13;;;7.60;76.47
19259;BME280;9763;48.780;9.212;2022-12-07T18:37:51;98174.75;;;7.57;75.86
19259;BME280;9763;48.780;9.212;2022-12-07T18:41:15;98176.59;;;7.55;76.23
19259;BME280;9763;48.780;9.212;2022-12-07T18:44:39;98179.19;;;7.55;76.50
19259;BME280;9763;48.780;9.212;2022-12-07T18:48:04;98174.75;;;7.57;76.52
19259;BME280;9763;48.780;9.212;2022-12-07T18:51:29;98177.06;;;7.62;76.20
19259;BME280;9763;48.780;9.212;2022-12-07T18:54:54;98176.91;;;7.65;76.33
19259;BME280;9763;48.780;9.212;2022-12-07T18:58:18;98176.72;;;7.68;76.56
19259;BME280;9763;48.780;9.212;2022-12-07T19:01:43;98169.50;;;7.73;76.39
19259;BME280;9763;48.780;9.212;2022-12-07T19:05:07;98181.47;;;7.76;75.86